ENBR Airport Information

Runway Information
Runway 17 Length 9810 ft width 148 ft
Elevation 165 ft Threshold 886 ft Heading 171
Runway 35 Length 9810 ft Width 148 ft
Elevation 146 ft Threshold 889 ft Heading 351
Airport Frequencies
Type APP Name RADAR Frequency 121 MHZ
Type ARR Name ARR Frequency 125 MHZ
Type ATIS Name ATIS Frequency 125.25 MHZ
Type DIR Name DIRECTOR Frequency 118.85 MHZ
Type GND Name GND Frequency 121.9 MHZ
Type TWR Name TWR Frequency 119.1 MHZ
Airport Navaids
Type NDB Name Askoy Frequency 360 KHZ
Type NDB Name Bratta Frequency 336 KHZ
Type TACAN Name Flesland Frequency 114500 KHZ
Type VOR-DME Name Flesland Frequency 115550 KHZ
Type VOR-DME Name Vollo Frequency 114850 KHZ
Airport Weather Information & NOTAM
ADDS - METARS form results

(1548 UTC 21 November 2018)
Data provider http://aviationweather.gov/metar/data/
 
METAR text: ENBR 211520Z VRB02KT CAVOK 03/M01 Q1030 NOSIG RMK WIND 1200FT 25007KT
Conditions at: ENBR (BERGEN/FLESLAND , NO) observed 1520 UTC 21 November 2018
Temperature: 3.0°C (37°F)
Dewpoint: -1.0°C (30°F) [RH = 75%]
Pressure (altimeter): 30.41 inches Hg (1030.0 mb)
Winds: variable direction winds at 2 MPH (2 knots; 1.0 m/s)
Visibility: 6 or more miles (10+ km)
Ceiling: ceiling and visibility are OK
Clouds: unknown
Weather: no significant weather observed at this time

METAR text: ENBR 211450Z VRB02KT CAVOK 04/M00 Q1030 NOSIG RMK WIND 1200FT 25007KT
Conditions at: ENBR (BERGEN/FLESLAND , NO) observed 1450 UTC 21 November 2018
Temperature: 4.0°C (39°F)
Dewpoint: 0.0°C (32°F) [RH = 75%]
Pressure (altimeter): 30.41 inches Hg (1030.0 mb)
Winds: variable direction winds at 2 MPH (2 knots; 1.0 m/s)
Visibility: 6 or more miles (10+ km)
Ceiling: ceiling and visibility are OK
Clouds: unknown
Weather: no significant weather observed at this time

Forecast for: ENBR (BERGEN/FLESLAND , NO)
Text: TAF ENBR 2112/2212 VRB05KT CAVOK
Forecast period: 1200 UTC 21 November 2018 to 1200 UTC 22 November 2018
Forecast type: FROM: standard forecast or significant change
Winds: variable direction winds at 6 MPH (5 knots; 2.6 m/s)
Visibility: 6 or more miles 10+ km)
Ceiling: unknown
Clouds: missing
Weather: NSW  (no significant weather)
Text: PROB30 2117/2207 0500 FZFG VV001
Forecast period: 1700 UTC 21 November 2018 to 0700 UTC 22 November 2018
Forecast type: PROBABLE: 30 percent likelihood of the following during this time
Visibility: 0.31 miles (0.50 km)
Ceiling: indefinite ceiling with vertical visibility of 100 feet AGL
Clouds: obscured sky
Weather: FZFG  (freezing fog)